createdAt,value
2019-06-10T00:06:51.000Z,1008.894
2019-06-10T00:16:51.000Z,1008.774
2019-06-10T00:26:53.000Z,1008.703
2019-06-10T00:36:51.000Z,1008.493
2019-06-10T00:46:51.000Z,1008.27
2019-06-10T00:56:51.000Z,1008.145
2019-06-10T01:06:51.000Z,1008.078
2019-06-10T01:16:51.000Z,1007.938
2019-06-10T01:26:51.000Z,1007.844
2019-06-10T01:36:55.000Z,1007.714
2019-06-10T01:46:51.000Z,1007.593
2019-06-10T01:56:52.000Z,1007.487
2019-06-10T02:06:51.000Z,1007.405
2019-06-10T02:16:52.000Z,1007.204
2019-06-10T02:26:51.000Z,1007.073
2019-06-10T02:36:51.000Z,1006.923
2019-06-10T02:46:52.000Z,1006.765
2019-06-10T02:56:52.000Z,1006.588
2019-06-10T03:06:53.000Z,1006.523
2019-06-10T03:16:52.000Z,1006.51
2019-06-10T03:26:52.000Z,1006.503
2019-06-10T03:36:53.000Z,1006.529
2019-06-10T03:46:52.000Z,1006.516
2019-06-10T03:56:52.000Z,1006.37
2019-06-10T04:06:52.000Z,1006.411
2019-06-10T04:16:52.000Z,1006.422
2019-06-10T04:26:52.000Z,1006.266
2019-06-10T04:36:52.000Z,1006.146
2019-06-10T04:46:52.000Z,1006.021
2019-06-10T04:56:52.000Z,1006.07
2019-06-10T05:06:55.000Z,1005.998
2019-06-10T05:16:52.000Z,1005.926
2019-06-10T05:26:53.000Z,1005.916
2019-06-10T05:36:52.000Z,1005.894
2019-06-10T05:46:52.000Z,1005.979
2019-06-10T05:56:54.000Z,1005.984
2019-06-10T06:06:53.000Z,1005.939
2019-06-10T06:16:52.000Z,1005.875
2019-06-10T06:26:52.000Z,1005.716
2019-06-10T06:36:52.000Z,1005.803
2019-06-10T06:46:52.000Z,1005.788
2019-06-10T06:56:52.000Z,1005.695
2019-06-10T07:06:52.000Z,1005.785
2019-06-10T07:16:54.000Z,1005.799
2019-06-10T07:26:52.000Z,1005.666
2019-06-10T07:36:52.000Z,1005.632
2019-06-10T07:46:52.000Z,1005.612
2019-06-10T07:56:52.000Z,1005.527
2019-06-10T08:06:52.000Z,1005.521
2019-06-10T08:16:52.000Z,1005.4
2019-06-10T08:26:52.000Z,1005.505
2019-06-10T08:36:53.000Z,1005.279
2019-06-10T08:46:52.000Z,1005.325
2019-06-10T08:56:52.000Z,1005.13
2019-06-10T09:06:52.000Z,1005.105
2019-06-10T09:16:52.000Z,1004.969
2019-06-10T09:26:55.000Z,1004.825
2019-06-10T09:36:52.000Z,1004.78
2019-06-10T09:46:52.000Z,1004.791
2019-06-10T09:56:52.000Z,1004.898
2019-06-10T10:06:53.000Z,1004.83
2019-06-10T10:16:52.000Z,1004.795
2019-06-10T10:26:52.000Z,1004.632
2019-06-10T10:36:52.000Z,1004.531
2019-06-10T10:46:52.000Z,1004.44
2019-06-10T10:56:52.000Z,1004.287
2019-06-10T11:06:57.000Z,1004.264
2019-06-10T11:16:56.000Z,1004.164
2019-06-10T11:26:53.000Z,1004.068
2019-06-10T11:36:53.000Z,1004.087
2019-06-10T11:46:53.000Z,1003.89
2019-06-10T11:56:53.000Z,1003.712
2019-06-10T12:06:53.000Z,1003.558
2019-06-10T12:26:53.000Z,1003.438
2019-06-10T12:36:53.000Z,1003.344
2019-06-10T12:46:54.000Z,1003.326
2019-06-10T12:56:54.000Z,1003.189
2019-06-10T13:06:53.000Z,1002.933
2019-06-10T13:16:54.000Z,1002.866
2019-06-10T13:36:53.000Z,1002.83
2019-06-10T13:46:53.000Z,1002.771
2019-06-10T13:56:54.000Z,1002.593
2019-06-10T14:06:53.000Z,1002.562
2019-06-10T14:16:53.000Z,1002.451
2019-06-10T14:26:53.000Z,1002.327
2019-06-10T14:36:53.000Z,1002.222
2019-06-10T14:46:53.000Z,1002.122
2019-06-10T14:56:54.000Z,1002.207
2019-06-10T15:06:54.000Z,1002.142
2019-06-10T15:16:53.000Z,1002.103
2019-06-10T15:26:53.000Z,1002.177
2019-06-10T15:36:53.000Z,1002.152
2019-06-10T15:46:53.000Z,1001.919
2019-06-10T15:56:53.000Z,1001.571
2019-06-10T16:16:53.000Z,1001.447
2019-06-10T16:26:53.000Z,1001.462
2019-06-10T16:36:53.000Z,1001.414
2019-06-10T16:46:53.000Z,1001.356
2019-06-10T16:56:53.000Z,1001.299
2019-06-10T17:06:53.000Z,1001.41
2019-06-10T17:16:53.000Z,1001.532
2019-06-10T17:26:53.000Z,1001.654
2019-06-10T17:36:53.000Z,1001.69
2019-06-10T17:46:53.000Z,1001.904
2019-06-10T17:56:53.000Z,1001.898
2019-06-10T18:06:53.000Z,1001.973
2019-06-10T18:16:53.000Z,1001.962
2019-06-10T18:26:53.000Z,1001.775
2019-06-10T18:36:54.000Z,1002.061
2019-06-10T18:46:53.000Z,1002.276
2019-06-10T18:56:54.000Z,1002.14
2019-06-10T19:06:53.000Z,1002.204
2019-06-10T19:16:56.000Z,1002.329
2019-06-10T19:26:54.000Z,1002.185
2019-06-10T19:36:55.000Z,1001.89
2019-06-10T19:46:54.000Z,1001.876
2019-06-10T20:06:54.000Z,1001.744
2019-06-10T20:16:54.000Z,1001.883
2019-06-10T20:26:57.000Z,1002.183
2019-06-10T20:36:56.000Z,1002.06
2019-06-10T20:46:54.000Z,1001.952
2019-06-10T20:56:54.000Z,1001.954
2019-06-10T21:06:54.000Z,1002.026
2019-06-10T21:16:54.000Z,1001.968
2019-06-10T21:26:54.000Z,1002.003
2019-06-10T21:36:55.000Z,1002.198
2019-06-10T21:46:54.000Z,1002.451
2019-06-10T21:56:56.000Z,1002.318
2019-06-10T22:06:54.000Z,1002.212
2019-06-10T22:16:54.000Z,1002.222
2019-06-10T22:36:54.000Z,1002.317
2019-06-10T22:46:54.000Z,1002.218
2019-06-10T22:56:54.000Z,1002.441
2019-06-10T23:06:54.000Z,1002.513
2019-06-10T23:16:54.000Z,1002.395
2019-06-10T23:26:54.000Z,1002.103
2019-06-10T23:36:54.000Z,1002.315
2019-06-10T23:46:54.000Z,1002.924
2019-06-10T23:56:54.000Z,1002.585
